Time;durP1;ratioP1;P1;durP2;ratioP2;P2;SDS_P1;SDS_P2;PMS_P1;PMS_P2;Temp;Humidity;BMP_temperature;BMP_pressure;BME280_temperature;BME280_humidity;BME280_pressure;Samples;Min_cycle;Max_cycle;Signal;HPM_P1;HPM_P2
2021/04/05 07:45:16;;;;;;;2.80;2.60;;;20.70;59.10;;;;;;5194681;27;20266;-87
2021/04/05 07:47:51;;;;;;;2.47;1.73;;;21.20;59.70;;;;;;5173366;27;20637;-81
2021/04/05 07:50:27;;;;;;;7.57;2.10;;;21.80;58.10;;;;;;5173274;27;20428;-83
2021/04/05 07:52:58;;;;;;;4.30;2.07;;;22.60;57.60;;;;;;5173009;27;20429;-84
2021/04/05 07:55:25;;;;;;;3.30;2.53;;;22.90;57.00;;;;;;5173119;27;20437;-92
2021/04/05 07:58:01;;;;;;;4.00;3.70;;;23.10;56.80;;;;;;5173204;27;20927;-86
2021/04/05 08:00:33;;;;;;;3.43;3.13;;;23.30;56.90;;;;;;5173092;27;20434;-83
2021/04/05 08:03:15;;;;;;;4.50;3.90;;;23.50;56.70;;;;;;5173146;27;20953;-85
2021/04/05 08:05:52;;;;;;;3.07;2.87;;;23.50;56.80;;;;;;5173205;27;20430;-87
2021/04/05 08:08:43;;;;;;;3.83;3.53;;;23.50;56.80;;;;;;5172999;27;20444;-85
2021/04/05 08:11:18;;;;;;;4.53;3.07;;;23.60;56.70;;;;;;5172870;27;20437;-84
2021/04/05 08:13:56;;;;;;;3.90;3.60;;;23.60;56.70;;;;;;5172747;27;20484;-84
2021/04/05 08:16:32;;;;;;;3.73;3.43;;;23.70;56.60;;;;;;5172808;27;20434;-84
2021/04/05 08:19:17;;;;;;;2.93;2.73;;;23.80;56.60;;;;;;5172764;27;20496;-83
2021/04/05 08:21:53;;;;;;;3.87;3.30;;;23.80;56.60;;;;;;5172671;27;20429;-83
2021/04/05 08:24:27;;;;;;;2.97;2.77;;;24.00;56.60;;;;;;5172459;27;20434;-84
2021/04/05 08:27:00;;;;;;;6.40;2.40;;;23.80;56.30;;;;;;5172406;27;20442;-84
2021/04/05 08:29:37;;;;;;;3.10;2.80;;;23.90;56.40;;;;;;5172372;27;20505;-83
2021/04/05 08:32:16;;;;;;;4.90;2.80;;;23.90;56.60;;;;;;5172385;27;20465;-84
2021/04/05 08:35:06;;;;;;;3.00;2.80;;;23.90;56.50;;;;;;5172412;27;20477;-84
2021/04/05 08:37:40;;;;;;;3.07;2.73;;;24.10;56.60;;;;;;5172050;27;20443;-83
2021/04/05 08:40:11;;;;;;;3.10;2.90;;;24.00;56.50;;;;;;5173294;27;20433;-87
2021/04/05 08:42:42;;;;;;;2.77;2.57;;;24.00;56.40;;;;;;5172342;27;20924;-86
2021/04/05 08:45:16;;;;;;;4.13;3.07;;;24.00;56.40;;;;;;5172273;27;20441;-87
2021/04/05 08:47:48;;;;;;;3.00;2.80;;;24.00;56.30;;;;;;5172498;27;20467;-86
2021/04/05 08:50:17;;;;;;;2.07;1.97;;;24.10;56.40;;;;;;5172070;27;20446;-86
2021/04/05 08:52:45;;;;;;;3.27;2.70;;;24.00;56.40;;;;;;5172283;27;20435;-86
2021/04/05 08:55:15;;;;;;;2.20;1.97;;;23.90;56.30;;;;;;5165720;27;20439;-86
2021/04/05 08:57:47;;;;;;;2.63;1.90;;;23.90;56.30;;;;;;5158226;27;20465;-86
2021/04/05 09:00:16;;;;;;;6.63;2.30;;;23.90;56.50;;;;;;5158022;27;20430;-86
2021/04/05 09:02:47;;;;;;;2.10;1.90;;;23.90;56.50;;;;;;5158043;27;20802;-86
2021/04/05 09:05:15;;;;;;;2.40;2.20;;;23.80;56.50;;;;;;5158007;27;20433;-86
2021/04/05 09:08:00;;;;;;;2.07;1.97;;;23.90;56.50;;;;;;5157961;27;20434;-82
2021/04/05 09:10:30;;;;;;;2.50;2.07;;;23.90;56.70;;;;;;5158162;27;20846;-82
2021/04/05 09:12:58;;;;;;;1.93;1.83;;;23.90;56.30;;;;;;5157912;27;20491;-82
2021/04/05 09:15:58;;;;;;;2.53;2.23;;;24.00;56.40;;;;;;5157658;27;20438;-83
2021/04/05 09:18:51;;;;;;;2.40;2.27;;;24.00;56.20;;;;;;5122868;27;20491;-82
2021/04/05 09:21:37;;;;;;;2.67;2.30;;;24.00;56.40;;;;;;5157482;27;20434;-82
2021/04/05 09:24:27;;;;;;;2.20;2.00;;;24.00;56.40;;;;;;5158349;27;20491;-84
2021/04/05 09:27:12;;;;;;;4.40;2.00;;;24.00;56.10;;;;;;5154606;27;20500;-83
2021/04/05 09:29:45;;;;;;;2.67;2.20;;;24.10;56.90;;;;;;5157608;27;20946;-88
2021/04/05 09:33:00;;;;;;;3.10;2.80;;;24.00;56.10;;;;;;5157688;27;20496;-90
2021/04/05 09:35:41;;;;;;;5.77;4.30;;;24.00;54.40;;;;;;5157715;27;20439;-88
2021/04/05 09:38:26;;;;;;;12.47;8.00;;;24.00;54.10;;;;;;5157595;27;20509;-87
2021/04/05 09:41:20;;;;;;;10.70;8.80;;;24.00;54.60;;;;;;5157507;27;20440;-83
2021/04/05 09:44:29;;;;;;;10.10;7.73;;;24.00;55.20;;;;;;5156810;27;20469;-88
2021/04/05 09:47:40;;;;;;;11.30;7.70;;;24.00;55.30;;;;;;5157288;27;20479;-83
2021/04/05 09:50:20;;;;;;;40.00;9.20;;;24.00;55.30;;;;;;5148245;27;20965;-83
2021/04/05 09:53:22;;;;;;;9.80;6.50;;;24.00;55.30;;;;;;5153274;27;20483;-83
2021/04/05 09:55:52;;;;;;;15.97;7.50;;;24.00;55.50;;;;;;5153979;27;20451;-88
2021/04/05 09:58:25;;;;;;;10.30;6.90;;;24.10;55.70;;;;;;5157141;27;20443;-88
2021/04/05 10:00:56;;;;;;;11.10;6.93;;;24.00;55.60;;;;;;5159592;27;20439;-89
2021/04/05 10:03:26;;;;;;;9.57;6.80;;;24.00;55.70;;;;;;5145649;27;20491;-88
2021/04/05 10:05:53;;;;;;;10.80;6.47;;;24.00;55.70;;;;;;5140962;27;20448;-92
2021/04/05 10:08:24;;;;;;;9.00;6.33;;;24.00;55.80;;;;;;5138767;27;20451;-87
2021/04/05 10:10:56;;;;;;;11.00;6.23;;;24.00;55.80;;;;;;5139593;27;20428;-88
2021/04/05 10:13:25;;;;;;;9.20;6.00;;;24.10;55.70;;;;;;5142219;27;20459;-92
2021/04/05 10:15:51;;;;;;;9.20;6.27;;;24.10;55.80;;;;;;5136224;27;20460;-89
2021/04/05 10:18:19;;;;;;;5.77;4.10;;;24.10;55.60;;;;;;5136166;27;20766;-87
2021/04/05 10:20:49;;;;;;;7.37;5.50;;;24.10;55.50;;;;;;5135515;27;20955;-85
2021/04/05 10:23:21;;;;;;;8.67;5.77;;;24.10;55.60;;;;;;5135269;27;20535;-88
2021/04/05 10:25:54;;;;;;;10.53;5.20;;;24.10;55.50;;;;;;5142941;27;20435;-87
2021/04/05 10:28:21;;;;;;;5.80;4.70;;;24.10;55.60;;;;;;5156578;27;20435;-87
2021/04/05 10:30:55;;;;;;;5.23;4.17;;;24.10;56.30;;;;;;5156338;27;20456;-84
2021/04/05 10:33:28;;;;;;;5.50;4.80;;;24.10;55.30;;;;;;5156161;27;20435;-85
2021/04/05 10:35:57;;;;;;;6.77;4.30;;;24.10;55.50;;;;;;5154843;27;20438;-87
2021/04/05 10:38:25;;;;;;;8.03;5.10;;;24.10;55.80;;;;;;5135345;27;20436;-87
2021/04/05 10:40:53;;;;;;;6.47;4.67;;;24.10;55.80;;;;;;5135533;27;20473;-89
2021/04/05 10:43:24;;;;;;;9.37;5.30;;;24.10;55.80;;;;;;5135008;27;20491;-87
2021/04/05 10:45:56;;;;;;;6.47;4.30;;;24.10;55.80;;;;;;5135152;27;20470;-88
2021/04/05 10:48:28;;;;;;;7.30;4.90;;;24.10;55.90;;;;;;5134987;27;20949;-86
2021/04/05 10:50:58;;;;;;;6.37;4.70;;;24.10;55.90;;;;;;5135137;27;20440;-90
2021/04/05 10:53:27;;;;;;;8.50;5.60;;;24.10;56.00;;;;;;5134987;27;20999;-86
2021/04/05 10:56:01;;;;;;;5.80;4.37;;;24.10;55.90;;;;;;5135634;27;20466;-84
2021/04/05 10:58:34;;;;;;;5.97;4.03;;;24.10;55.90;;;;;;5137497;27;20503;-87
2021/04/05 11:01:05;;;;;;;5.10;3.80;;;24.10;55.90;;;;;;5154968;27;20442;-84
2021/04/05 11:03:34;;;;;;;7.50;4.10;;;24.10;55.90;;;;;;5155246;27;20467;-84
2021/04/05 11:06:05;;;;;;;4.13;3.70;;;24.10;56.00;;;;;;5134829;27;20860;-85
2021/04/05 11:08:35;;;;;;;3.83;3.33;;;24.10;55.90;;;;;;5134688;27;20440;-86
2021/04/05 11:11:06;;;;;;;5.40;4.03;;;24.10;55.90;;;;;;5134639;27;20454;-84
2021/04/05 11:13:37;;;;;;;5.03;3.70;;;24.10;55.90;;;;;;5134360;27;20473;-85
2021/04/05 11:16:09;;;;;;;7.03;3.60;;;24.10;55.90;;;;;;5134812;27;20441;-84
2021/04/05 11:18:36;;;;;;;5.53;4.10;;;24.10;55.90;;;;;;5134428;27;20797;-85
2021/04/05 11:21:03;;;;;;;3.60;3.30;;;24.10;55.90;;;;;;5134548;27;20443;-83
2021/04/05 11:23:35;;;;;;;3.70;2.80;;;24.20;56.00;;;;;;5134520;27;20474;-85
2021/04/05 11:26:05;;;;;;;3.20;2.93;;;24.20;55.80;;;;;;5134715;27;20832;-85
2021/04/05 11:28:33;;;;;;;4.80;3.60;;;24.30;56.00;;;;;;5134677;27;20443;-84
2021/04/05 11:31:03;;;;;;;3.20;2.90;;;24.30;55.90;;;;;;5134588;27;20812;-84
2021/04/05 11:33:41;;;;;;;3.20;2.57;;;24.30;55.80;;;;;;5134650;27;20787;-84
2021/04/05 11:36:08;;;;;;;6.63;4.13;;;24.20;55.90;;;;;;5137521;27;20465;-84
2021/04/05 11:38:42;;;;;;;6.73;3.60;;;24.10;56.40;;;;;;5155142;27;20443;-86
2021/04/05 11:41:11;;;;;;;4.10;2.80;;;24.20;56.10;;;;;;5155040;27;20435;-84
2021/04/05 11:43:42;;;;;;;3.67;3.30;;;24.20;55.80;;;;;;5154758;27;20483;-86
2021/04/05 11:46:11;;;;;;;7.90;2.93;;;24.20;56.00;;;;;;5155142;27;20431;-86
2021/04/05 11:48:37;;;;;;;6.30;2.80;;;24.20;54.40;;;;;;5155230;27;20854;-88
2021/04/05 11:51:05;;;;;;;4.77;2.43;;;24.20;54.20;;;;;;5136705;27;20464;-90
2021/04/05 11:53:42;;;;;;;2.27;1.90;;;24.20;54.70;;;;;;5134606;28;20488;-90
2021/04/05 11:56:23;;;;;;;4.03;2.60;;;24.10;55.30;;;;;;5134887;28;20428;-91
2021/04/05 11:59:01;;;;;;;4.40;2.40;;;24.10;55.40;;;;;;5135416;27;20835;-90
2021/04/05 12:01:35;;;;;;;3.10;2.57;;;24.10;55.30;;;;;;5136963;28;20440;-89
2021/04/05 12:04:13;;;;;;;4.53;2.50;;;24.20;55.50;;;;;;5134541;28;20876;-92
2021/04/05 12:06:44;;;;;;;4.77;2.30;;;24.10;55.20;;;;;;5137609;28;20648;-90
2021/04/05 12:09:15;;;;;;;5.63;2.53;;;23.90;54.80;;;;;;5145103;28;20937;-89
2021/04/05 12:11:46;;;;;;;4.03;2.30;;;24.10;55.20;;;;;;5144240;28;20809;-87
2021/04/05 12:14:16;;;;;;;3.73;2.37;;;24.20;55.70;;;;;;5142220;28;20452;-86
2021/04/05 12:16:49;;;;;;;2.80;2.60;;;24.30;55.70;;;;;;5140662;28;20535;-87
2021/04/05 12:19:21;;;;;;;2.63;2.37;;;24.40;55.80;;;;;;5133916;28;20440;-87
2021/04/05 12:21:51;;;;;;;2.00;1.63;;;24.50;55.00;;;;;;5133864;28;20806;-84
2021/04/05 12:24:25;;;;;;;5.33;2.23;;;24.40;54.40;;;;;;5133726;28;20564;-85
2021/04/05 12:26:56;;;;;;;4.13;1.97;;;24.40;54.70;;;;;;5134110;28;20440;-86
2021/04/05 12:29:25;;;;;;;3.10;2.27;;;24.50;55.70;;;;;;5133814;27;20788;-85
2021/04/05 12:31:53;;;;;;;7.00;1.97;;;24.50;55.10;;;;;;5137624;27;20444;-86
2021/04/05 12:34:25;;;;;;;2.40;2.20;;;24.70;55.30;;;;;;5137967;27;20542;-86
2021/04/05 12:36:52;;;;;;;2.17;1.97;;;24.70;55.10;;;;;;5137953;27;20433;-86
2021/04/05 12:39:19;;;;;;;1.97;1.77;;;24.70;55.00;;;;;;5138255;27;20443;-85
2021/04/05 12:41:47;;;;;;;2.73;2.03;;;24.50;53.90;;;;;;5137958;27;20461;-85
2021/04/05 12:44:24;;;;;;;2.67;1.70;;;24.60;53.80;;;;;;5137533;27;20485;-86
2021/04/05 12:46:52;;;;;;;2.07;1.40;;;24.40;53.70;;;;;;5137945;27;20447;-85
2021/04/05 12:49:20;;;;;;;2.53;1.60;;;24.50;53.90;;;;;;5137621;27;20780;-85
2021/04/05 12:51:52;;;;;;;3.03;1.50;;;24.40;53.80;;;;;;5137491;27;20449;-85
2021/04/05 12:54:22;;;;;;;2.27;1.80;;;24.40;53.80;;;;;;5137528;27;20436;-85
2021/04/05 12:56:51;;;;;;;2.30;1.80;;;24.40;53.90;;;;;;5137757;27;20951;-85
2021/04/05 12:59:23;;;;;;;3.73;2.00;;;24.40;54.10;;;;;;5137172;27;20928;-85
2021/04/05 13:01:54;;;;;;;4.37;1.70;;;24.40;54.30;;;;;;5137681;27;20432;-86
2021/04/05 13:04:21;;;;;;;2.13;1.77;;;24.40;54.40;;;;;;5137247;27;20836;-86
2021/04/05 13:06:55;;;;;;;5.30;2.27;;;24.50;55.20;;;;;;5137449;27;20445;-86
2021/04/05 13:09:25;;;;;;;1.60;1.30;;;24.50;55.40;;;;;;5137189;27;20494;-86
2021/04/05 13:11:55;;;;;;;3.70;1.67;;;24.60;55.60;;;;;;5137092;27;20470;-86
2021/04/05 13:14:28;;;;;;;2.33;1.60;;;24.60;55.60;;;;;;5136893;27;20461;-87
2021/04/05 13:17:03;;;;;;;3.43;1.67;;;24.70;55.70;;;;;;5137297;27;20444;-86
2021/04/05 13:19:33;;;;;;;3.50;2.00;;;24.70;55.80;;;;;;5136976;27;20439;-86
2021/04/05 13:22:01;;;;;;;3.60;1.80;;;24.70;55.80;;;;;;5136552;27;20473;-86
2021/04/05 13:24:32;;;;;;;4.83;1.57;;;24.70;55.80;;;;;;5136562;27;20484;-86
2021/04/05 13:27:01;;;;;;;2.23;1.30;;;24.80;55.90;;;;;;5137056;27;20441;-87
2021/04/05 13:29:30;;;;;;;4.63;1.40;;;24.80;55.60;;;;;;5136971;27;20449;-86
2021/04/05 13:31:58;;;;;;;11.83;1.37;;;24.70;54.00;;;;;;5136843;27;20452;-85
2021/04/05 13:34:28;;;;;;;3.53;1.40;;;24.70;53.90;;;;;;5136750;27;20434;-85
2021/04/05 13:36:56;;;;;;;2.50;1.13;;;24.60;53.80;;;;;;5153490;27;20461;-87
2021/04/05 13:39:25;;;;;;;3.33;1.50;;;24.60;54.40;;;;;;5157790;27;20493;-88
2021/04/05 13:42:00;;;;;;;2.80;1.30;;;24.70;55.00;;;;;;5157282;27;20968;-85
2021/04/05 13:44:31;;;;;;;2.63;1.70;;;24.70;55.10;;;;;;5156872;27;20490;-85
2021/04/05 13:47:00;;;;;;;2.37;1.53;;;24.70;55.30;;;;;;5157343;27;20444;-88
2021/04/05 13:49:34;;;;;;;3.73;1.40;;;24.70;55.50;;;;;;5157419;27;20443;-90
2021/04/05 13:52:01;;;;;;;3.00;1.40;;;24.80;55.70;;;;;;5157410;27;20448;-87
2021/04/05 13:54:30;;;;;;;6.83;1.40;;;24.70;55.70;;;;;;5157619;27;20443;-92
2021/04/05 13:57:00;;;;;;;3.57;1.30;;;24.70;55.80;;;;;;5157396;27;20447;-88
2021/04/05 13:59:27;;;;;;;4.03;1.73;;;24.70;55.80;;;;;;5157555;27;20436;-86
2021/04/05 14:01:56;;;;;;;5.77;1.70;;;24.70;55.90;;;;;;5157038;27;20436;-87
2021/04/05 14:04:23;;;;;;;3.60;1.83;;;24.70;56.60;;;;;;5156976;27;20577;-87
2021/04/05 14:06:51;;;;;;;2.07;1.30;;;24.80;56.10;;;;;;5157080;27;20439;-92
2021/04/05 14:09:22;;;;;;;4.07;1.50;;;24.80;56.10;;;;;;5156779;27;20458;-90
2021/04/05 14:11:52;;;;;;;1.87;1.30;;;24.70;56.10;;;;;;5158971;27;20445;-89
2021/04/05 14:14:22;;;;;;;1.90;1.53;;;24.60;56.00;;;;;;5160180;27;20459;-93
2021/04/05 14:16:53;;;;;;;3.67;1.40;;;24.60;55.90;;;;;;5158312;27;20469;-92
2021/04/05 14:19:26;;;;;;;3.40;1.83;;;24.60;56.00;;;;;;5139648;27;20442;-87
2021/04/05 14:21:59;;;;;;;8.20;1.30;;;24.60;56.00;;;;;;5138683;27;20777;-89
2021/04/05 14:24:28;;;;;;;1.40;1.10;;;24.70;56.20;;;;;;5139291;27;20473;-92
2021/04/05 14:26:57;;;;;;;2.30;1.37;;;24.60;56.20;;;;;;5138330;27;20445;-92
2021/04/05 14:29:29;;;;;;;1.80;1.30;;;24.60;56.20;;;;;;5136353;27;20802;-84
2021/04/05 14:32:00;;;;;;;1.40;0.90;;;24.70;56.20;;;;;;5135552;27;20977;-94
2021/04/05 14:34:32;;;;;;;6.10;1.20;;;24.50;54.90;;;;;;5136413;27;20939;-89
2021/04/05 14:37:05;;;;;;;4.50;1.07;;;24.40;54.60;;;;;;5150818;27;20933;-88
2021/04/05 14:39:35;;;;;;;2.23;1.00;;;24.40;54.70;;;;;;5144112;27;20542;-87
2021/04/05 14:42:14;;;;;;;1.30;1.10;;;24.40;54.70;;;;;;5142624;27;20528;-90
2021/04/05 14:44:45;;;;;;;2.20;0.97;;;24.30;54.40;;;;;;5145557;27;20495;-89
2021/04/05 14:47:14;;;;;;;2.00;1.40;;;24.50;54.50;;;;;;5137576;27;20421;-84
2021/04/05 14:49:47;;;;;;;2.93;0.93;;;24.30;54.70;;;;;;5135767;27;20441;-87
2021/04/05 14:52:15;;;;;;;1.50;1.07;;;24.30;55.40;;;;;;5135291;27;20496;-84
2021/04/05 14:54:43;;;;;;;3.00;1.10;;;24.30;54.20;;;;;;5134579;27;20462;-91
2021/04/05 14:57:11;;;;;;;1.73;1.20;;;24.50;54.20;;;;;;5134497;27;20437;-83
2021/04/05 14:59:40;;;;;;;1.30;1.03;;;24.30;53.90;;;;;;5134651;27;20446;-85
2021/04/05 15:02:08;;;;;;;1.30;1.03;;;24.30;53.80;;;;;;5134670;27;20449;-87
2021/04/05 15:04:38;;;;;;;1.60;1.00;;;24.20;53.80;;;;;;5134759;27;20582;-85
2021/04/05 15:07:09;;;;;;;1.57;1.10;;;24.20;54.10;;;;;;5134775;27;20451;-86
2021/04/05 15:09:38;;;;;;;1.40;1.10;;;24.20;54.80;;;;;;5155197;27;20446;-86
2021/04/05 15:12:07;;;;;;;3.97;0.90;;;24.20;55.10;;;;;;5145495;27;20466;-84
2021/04/05 15:14:37;;;;;;;2.90;1.40;;;24.20;55.30;;;;;;5134363;27;20464;-91
2021/04/05 15:17:06;;;;;;;1.50;1.30;;;24.20;55.50;;;;;;5134326;27;20440;-86
2021/04/05 15:19:34;;;;;;;1.77;1.10;;;24.20;55.60;;;;;;5134298;27;20493;-88
2021/04/05 15:22:03;;;;;;;1.67;1.20;;;24.20;55.60;;;;;;5135462;27;20438;-89
2021/04/05 15:24:34;;;;;;;2.27;1.00;;;24.10;55.70;;;;;;5134341;27;20472;-89
2021/04/05 15:27:01;;;;;;;3.07;1.20;;;24.10;55.40;;;;;;5134709;27;20433;-86
2021/04/05 15:29:29;;;;;;;1.43;0.90;;;24.10;55.00;;;;;;5133740;27;20443;-92
2021/04/05 15:31:57;;;;;;;1.20;1.00;;;24.10;55.60;;;;;;5134670;27;20460;-92
2021/04/05 15:34:27;;;;;;;2.77;0.90;;;24.10;56.00;;;;;;5134595;27;20532;-88
2021/04/05 15:36:54;;;;;;;1.30;0.93;;;24.10;54.60;;;;;;5117075;28;20446;-86
2021/04/05 15:39:22;;;;;;;3.23;1.10;;;24.10;54.90;;;;;;5134354;27;20843;-89
2021/04/05 15:41:57;;;;;;;1.20;0.80;;;24.10;55.70;;;;;;5134289;27;20502;-88
2021/04/05 15:44:25;;;;;;;1.53;1.27;;;24.10;55.90;;;;;;5134028;27;20501;-88
2021/04/05 15:46:57;;;;;;;2.67;1.30;;;24.10;55.80;;;;;;5134125;28;20524;-87
2021/04/05 15:49:30;;;;;;;2.37;1.00;;;24.10;56.10;;;;;;5134159;28;20451;-87
2021/04/05 15:51:59;;;;;;;1.97;1.30;;;24.10;56.00;;;;;;5134377;28;20926;-91
2021/04/05 15:54:40;;;;;;;2.07;1.00;;;24.10;56.20;;;;;;5134479;28;20496;-86
2021/04/05 15:57:30;;;;;;;1.43;0.93;;;24.10;56.20;;;;;;5134061;28;20439;-86
2021/04/05 16:00:04;;;;;;;2.97;0.93;;;24.10;56.20;;;;;;5136090;28;20444;-90
2021/04/05 16:02:46;;;;;;;1.10;0.80;;;24.10;56.20;;;;;;5136761;28;20522;-87
2021/04/05 16:05:20;;;;;;;2.37;0.90;;;24.10;56.40;;;;;;5137627;27;20552;-88
2021/04/05 16:07:59;;;;;;;1.83;1.00;;;24.00;56.30;;;;;;5140932;27;20460;-92
2021/04/05 16:10:35;;;;;;;1.63;1.00;;;24.00;56.40;;;;;;5140660;27;20432;-90
2021/04/05 16:13:10;;;;;;;1.30;0.90;;;24.00;56.40;;;;;;5141174;27;20547;-90
2021/04/05 16:15:38;;;;;;;1.47;0.80;;;24.00;56.60;;;;;;5140934;27;20450;-88
2021/04/05 16:18:11;;;;;;;3.43;1.07;;;23.80;56.40;;;;;;5140751;27;20468;-86
2021/04/05 16:20:39;;;;;;;3.57;1.30;;;24.00;56.60;;;;;;5140564;27;20446;-87
2021/04/05 16:23:11;;;;;;;1.40;0.90;;;24.00;56.60;;;;;;5140502;27;20465;-87
2021/04/05 16:25:41;;;;;;;2.00;0.77;;;24.00;56.60;;;;;;5139939;27;20565;-86
2021/04/05 16:28:11;;;;;;;1.40;0.90;;;24.00;56.60;;;;;;5139950;27;20472;-87
2021/04/05 16:30:40;;;;;;;2.93;1.20;;;24.00;56.60;;;;;;5140142;27;20947;-87
2021/04/05 16:33:12;;;;;;;1.90;0.83;;;24.00;56.60;;;;;;5140601;27;20442;-87
2021/04/05 16:35:42;;;;;;;1.30;0.93;;;24.00;56.50;;;;;;5140542;27;20445;-87
2021/04/05 16:38:16;;;;;;;2.80;0.90;;;24.00;56.50;;;;;;5141178;27;20503;-86
2021/04/05 16:40:45;;;;;;;2.80;0.83;;;24.00;56.90;;;;;;5141541;27;20453;-87
2021/04/05 16:43:23;;;;;;;2.67;1.27;;;24.00;56.60;;;;;;5140521;27;20476;-87
2021/04/05 16:45:51;;;;;;;1.10;0.87;;;24.00;56.50;;;;;;5141393;27;20483;-84
2021/04/05 16:48:19;;;;;;;1.40;0.90;;;24.00;56.50;;;;;;5141238;27;20787;-86
2021/04/05 16:50:47;;;;;;;1.17;1.00;;;24.00;56.50;;;;;;5141439;27;20537;-86
2021/04/05 16:53:23;;;;;;;1.50;0.90;;;24.00;56.40;;;;;;5141413;27;20445;-86
2021/04/05 16:55:51;;;;;;;2.90;1.13;;;24.00;56.40;;;;;;5141400;27;20439;-86
2021/04/05 16:58:25;;;;;;;1.20;0.90;;;24.00;56.50;;;;;;5140968;27;20537;-87
2021/04/05 17:00:57;;;;;;;1.30;0.97;;;24.10;56.40;;;;;;5140964;27;20438;-85
2021/04/05 17:03:26;;;;;;;1.00;0.77;;;24.00;56.40;;;;;;5141247;27;20447;-87
2021/04/05 17:05:55;;;;;;;1.93;0.90;;;24.00;56.30;;;;;;5140231;27;20480;-88
2021/04/05 17:08:27;;;;;;;1.60;1.00;;;24.00;56.20;;;;;;5140485;27;20426;-87
2021/04/05 17:11:00;;;;;;;1.13;0.83;;;24.00;56.30;;;;;;5140195;27;20479;-85
2021/04/05 17:13:32;;;;;;;1.00;0.80;;;24.00;56.20;;;;;;5139683;27;20861;-87
2021/04/05 17:16:00;;;;;;;1.13;0.70;;;24.00;56.20;;;;;;5138875;27;20437;-88
2021/04/05 17:18:43;;;;;;;1.20;0.90;;;24.00;56.20;;;;;;5141894;27;20449;-86
2021/04/05 17:21:18;;;;;;;1.33;0.90;;;24.00;56.10;;;;;;5141606;27;20439;-87
2021/04/05 17:23:48;;;;;;;1.27;0.80;;;24.00;56.20;;;;;;5166324;27;20434;-88
2021/04/05 17:26:21;;;;;;;2.27;0.80;;;24.00;56.10;;;;;;5161612;27;20551;-87
2021/04/05 17:28:54;;;;;;;1.10;1.00;;;24.00;56.00;;;;;;5175469;27;20431;-88
2021/04/05 17:31:32;;;;;;;1.57;0.83;;;24.00;56.20;;;;;;5174695;27;20446;-88
2021/04/05 17:34:08;;;;;;;1.20;0.77;;;24.00;56.60;;;;;;5162601;27;20438;-87
2021/04/05 17:36:37;;;;;;;1.43;0.90;;;24.00;56.30;;;;;;5143837;27;20439;-87
2021/04/05 17:39:06;;;;;;;1.40;0.80;;;24.00;55.80;;;;;;5136774;27;20448;-86
2021/04/05 17:41:36;;;;;;;3.57;1.23;;;24.00;56.10;;;;;;5136748;27;20494;-86
2021/04/05 17:44:06;;;;;;;1.60;1.10;;;24.00;56.10;;;;;;5136408;27;20494;-86
2021/04/05 17:47:06;;;;;;;1.90;0.93;;;24.00;56.20;;;;;;5136490;27;20942;-87
2021/04/05 17:49:47;;;;;;;1.10;0.80;;;24.00;56.30;;;;;;5091369;27;20920;-88
2021/04/05 17:52:19;;;;;;;3.10;2.20;;;24.00;56.10;;;;;;5136606;27;20444;-86
2021/04/05 17:54:52;;;;;;;1.10;1.00;;;24.00;55.90;;;;;;5136261;27;20440;-86
2021/04/05 17:57:24;;;;;;;2.13;1.43;;;24.00;56.10;;;;;;5135849;27;20450;-88
2021/04/05 18:00:07;;;;;;;1.57;0.90;;;24.00;56.10;;;;;;5135984;27;20440;-86
2021/04/05 18:02:53;;;;;;;1.40;1.00;;;24.00;56.00;;;;;;5135983;27;20437;-87
2021/04/05 18:05:34;;;;;;;1.40;1.10;;;24.00;56.10;;;;;;5132304;27;20484;-87
2021/04/05 18:08:11;;;;;;;1.10;0.80;;;24.10;56.30;;;;;;5144727;27;20523;-88
2021/04/05 18:10:46;;;;;;;1.30;1.20;;;24.00;56.10;;;;;;5156633;27;20431;-86
2021/04/05 18:13:33;;;;;;;3.33;0.80;;;24.00;56.20;;;;;;5142354;27;20477;-92
2021/04/05 18:16:08;;;;;;;2.80;1.17;;;24.10;56.10;;;;;;5135616;27;20448;-90
2021/04/05 18:18:39;;;;;;;1.33;0.83;;;24.00;56.10;;;;;;5135562;27;20527;-86
2021/04/05 18:21:45;;;;;;;1.20;0.90;;;24.00;56.20;;;;;;5135230;27;20530;-86
2021/04/05 18:24:45;;;;;;;3.30;1.00;;;24.10;56.30;;;;;;5135412;27;20485;-84
2021/04/05 18:27:24;;;;;;;1.10;0.80;;;24.10;55.50;;;;;;5110080;27;20787;-85
2021/04/05 18:30:06;;;;;;;1.37;1.00;;;24.00;56.20;;;;;;5135043;27;20447;-85
2021/04/05 18:32:50;;;;;;;2.30;0.97;;;24.10;55.90;;;;;;5135279;27;20799;-85
2021/04/05 18:35:22;;;;;;;1.10;0.80;;;24.10;56.10;;;;;;5135336;27;20466;-86
2021/04/05 18:37:51;;;;;;;1.30;0.90;;;24.10;56.20;;;;;;5135150;27;20820;-85
2021/04/05 18:40:22;;;;;;;1.97;0.70;;;24.10;56.10;;;;;;5135134;27;20440;-84
2021/04/05 18:42:50;;;;;;;1.67;0.90;;;24.00;55.60;;;;;;5134823;27;20896;-84
2021/04/05 18:45:39;;;;;;;1.30;1.17;;;24.00;56.10;;;;;;5134937;27;20484;-84
2021/04/05 18:48:23;;;;;;;1.80;0.93;;;24.10;56.50;;;;;;5134988;27;20438;-85
2021/04/05 18:50:54;;;;;;;2.67;0.90;;;24.10;56.30;;;;;;5134956;27;20439;-84
2021/04/05 18:53:25;;;;;;;2.10;1.00;;;24.00;56.50;;;;;;5134887;27;20437;-84
2021/04/05 18:55:58;;;;;;;1.30;0.90;;;24.00;56.20;;;;;;5134929;27;20435;-84
2021/04/05 18:58:25;;;;;;;1.30;0.97;;;24.00;56.30;;;;;;5134699;27;20931;-84
2021/04/05 19:01:01;;;;;;;7.33;1.10;;;24.00;56.30;;;;;;5134624;27;20438;-84
2021/04/05 19:03:36;;;;;;;1.10;0.97;;;24.00;56.30;;;;;;5134733;27;20435;-83
2021/04/05 19:06:11;;;;;;;1.60;0.90;;;24.00;56.40;;;;;;5134692;27;20483;-85
2021/04/05 19:08:46;;;;;;;3.97;1.20;;;24.00;55.90;;;;;;5134654;27;20949;-85
2021/04/05 19:11:25;;;;;;;1.30;0.77;;;24.00;56.60;;;;;;5134613;27;20431;-85
2021/04/05 19:14:05;;;;;;;1.40;0.90;;;24.00;56.50;;;;;;5134579;27;20502;-84
2021/04/05 19:16:38;;;;;;;1.77;0.97;;;24.00;56.60;;;;;;5134556;27;20918;-85
2021/04/05 19:19:16;;;;;;;1.60;1.00;;;24.00;56.60;;;;;;5134558;27;20445;-85
2021/04/05 19:21:58;;;;;;;1.30;1.00;;;24.00;56.40;;;;;;5134420;27;20454;-85
2021/04/05 19:24:54;;;;;;;2.10;0.90;;;24.00;56.50;;;;;;5134216;27;20479;-85
2021/04/05 19:27:38;;;;;;;1.67;0.83;;;24.00;56.50;;;;;;5134359;27;20453;-85
2021/04/05 19:30:22;;;;;;;1.17;1.00;;;24.00;57.10;;;;;;5134335;27;20460;-85
2021/04/05 19:33:06;;;;;;;1.40;0.80;;;23.90;56.40;;;;;;5134508;27;20760;-84
2021/04/05 19:35:51;;;;;;;1.77;1.10;;;23.90;56.20;;;;;;5134337;27;20443;-84
2021/04/05 19:38:38;;;;;;;1.30;0.80;;;24.00;56.40;;;;;;5134220;27;20443;-84
2021/04/05 19:41:19;;;;;;;1.20;1.00;;;23.90;56.20;;;;;;5103368;27;20790;-84
2021/04/05 19:44:11;;;;;;;2.97;2.67;;;23.90;56.20;;;;;;5133881;28;20487;-84
2021/04/05 19:46:41;;;;;;;1.93;0.83;;;23.90;56.30;;;;;;5134157;28;20447;-84
2021/04/05 19:49:49;;;;;;;1.40;0.93;;;23.90;56.30;;;;;;5134044;28;20446;-84
2021/04/05 19:52:49;;;;;;;1.23;0.77;;;23.90;56.20;;;;;;5125545;27;20443;-83
2021/04/05 19:55:28;;;;;;;2.23;0.90;;;23.90;56.00;;;;;;5100480;27;20811;-84
2021/04/05 19:58:20;;;;;;;0.93;0.73;;;23.90;56.10;;;;;;5133989;28;20436;-85
2021/04/05 20:00:55;;;;;;;5.30;0.90;;;23.90;56.00;;;;;;5133880;28;20444;-84
2021/04/05 20:03:41;;;;;;;2.13;1.17;;;23.90;56.10;;;;;;5134149;28;20435;-84
2021/04/05 20:06:11;;;;;;;4.20;1.00;;;23.90;56.10;;;;;;5133815;28;20489;-84
2021/04/05 20:08:54;;;;;;;1.90;1.13;;;23.90;56.00;;;;;;5133871;28;20440;-85
2021/04/05 20:11:33;;;;;;;1.00;0.80;;;23.90;56.10;;;;;;5134341;28;20437;-85
2021/04/05 20:14:15;;;;;;;1.17;0.90;;;23.90;56.10;;;;;;5134256;28;20465;-85
2021/04/05 20:16:46;;;;;;;2.17;1.00;;;23.90;56.20;;;;;;5134109;28;20434;-85
2021/04/05 20:19:19;;;;;;;1.20;0.80;;;23.90;56.20;;;;;;5134068;28;20438;-85
2021/04/05 20:21:48;;;;;;;1.30;0.93;;;23.90;56.20;;;;;;5134055;28;20995;-84
2021/04/05 20:24:20;;;;;;;2.30;1.37;;;23.90;56.20;;;;;;5133996;28;20489;-87
2021/04/05 20:26:48;;;;;;;2.50;1.10;;;23.90;56.10;;;;;;5134043;28;20527;-85
2021/04/05 20:29:20;;;;;;;1.00;0.80;;;23.90;56.70;;;;;;5134061;28;20495;-85
2021/04/05 20:31:52;;;;;;;1.40;0.80;;;23.90;56.20;;;;;;5134056;28;20938;-86
2021/04/05 20:34:37;;;;;;;1.83;1.00;;;23.90;56.30;;;;;;5134044;28;20444;-88
2021/04/05 20:37:39;;;;;;;1.10;0.80;;;23.90;56.40;;;;;;5133750;28;20817;-86
2021/04/05 20:40:10;;;;;;;1.77;0.97;;;23.90;56.40;;;;;;5133992;28;20432;-85
2021/04/05 20:42:53;;;;;;;1.23;0.90;;;23.90;56.40;;;;;;5133470;28;20452;-85
2021/04/05 20:45:27;;;;;;;1.20;0.80;;;23.90;56.30;;;;;;5133586;28;21005;-86
2021/04/05 20:47:57;;;;;;;1.07;0.80;;;23.90;56.20;;;;;;5133570;28;20475;-85
2021/04/05 20:50:30;;;;;;;1.30;0.90;;;23.90;56.10;;;;;;5133655;27;20543;-85
2021/04/05 20:53:06;;;;;;;1.57;0.83;;;23.90;56.20;;;;;;5137235;27;20467;-85
2021/04/05 20:55:39;;;;;;;1.10;0.97;;;24.00;56.30;;;;;;5137433;27;20930;-85
2021/04/05 20:58:15;;;;;;;1.00;0.70;;;24.00;56.20;;;;;;5137393;27;20447;-86
2021/04/05 21:00:44;;;;;;;1.30;0.90;;;24.00;56.30;;;;;;5137213;27;20444;-86
2021/04/05 21:03:12;;;;;;;2.23;0.87;;;23.90;56.20;;;;;;5137241;27;20439;-85
2021/04/05 21:05:39;;;;;;;1.30;0.90;;;23.90;56.20;;;;;;5136962;27;20569;-85